createdAt,value
2019-06-08T00:01:02.117Z,21.72
2019-06-08T00:06:04.559Z,21.69
2019-06-08T00:11:07.255Z,21.64
2019-06-08T00:16:09.756Z,21.61
2019-06-08T00:21:11.922Z,21.62
2019-06-08T00:26:15.913Z,21.59
2019-06-08T00:31:19.990Z,21.50
2019-06-08T00:36:22.995Z,21.46
2019-06-08T00:41:26.593Z,21.42
2019-06-08T00:46:28.742Z,21.36
2019-06-08T00:51:31.029Z,21.35
2019-06-08T00:56:33.802Z,21.32
2019-06-08T01:01:36.072Z,21.26
2019-06-08T01:06:38.289Z,21.23
2019-06-08T01:11:40.496Z,21.23
2019-06-08T01:16:42.622Z,21.22
2019-06-08T01:21:44.807Z,21.19
2019-06-08T01:26:47.352Z,21.14
2019-06-08T01:31:50.149Z,21.15
2019-06-08T01:36:52.370Z,21.12
2019-06-08T01:41:54.574Z,21.11
2019-06-08T01:46:56.714Z,21.03
2019-06-08T01:52:00.301Z,20.91
2019-06-08T01:57:02.999Z,20.83
2019-06-08T02:02:05.445Z,20.75
2019-06-08T02:07:07.726Z,20.60
2019-06-08T02:12:10.482Z,20.28
2019-06-08T02:17:12.807Z,20.11
2019-06-08T02:22:15.047Z,20.07
2019-06-08T02:27:17.543Z,19.98
2019-06-08T02:32:19.731Z,19.93
2019-06-08T02:37:22.231Z,19.80
2019-06-08T02:42:24.738Z,19.78
2019-06-08T02:47:28.396Z,19.83
2019-06-08T02:52:34.090Z,19.73
2019-06-08T02:57:39.879Z,19.58
2019-06-08T03:02:43.243Z,19.62
2019-06-08T03:07:50.053Z,19.58
2019-06-08T03:12:54.820Z,19.55
2019-06-08T03:17:57.622Z,19.48
2019-06-08T03:23:00.114Z,19.48
2019-06-08T03:28:02.288Z,19.35
2019-06-08T03:33:04.933Z,19.28
2019-06-08T03:38:07.661Z,19.20
2019-06-08T03:43:11.716Z,19.15
2019-06-08T03:48:14.799Z,19.11
2019-06-08T03:53:17.837Z,19.03
2019-06-08T03:58:20.732Z,18.99
2019-06-08T04:03:23.025Z,18.71
2019-06-08T04:08:25.439Z,18.57
2019-06-08T04:13:27.867Z,18.45
2019-06-08T04:18:30.547Z,18.15
2019-06-08T04:23:32.697Z,17.93
2019-06-08T04:28:35.032Z,18.00
2019-06-08T04:33:37.777Z,18.13
2019-06-08T04:38:41.333Z,18.30
2019-06-08T04:43:45.462Z,18.09
2019-06-08T04:48:50.055Z,17.95
2019-06-08T04:53:53.637Z,17.89
2019-06-08T04:58:56.552Z,17.83
2019-06-08T05:03:59.048Z,17.91
2019-06-08T05:09:01.489Z,17.95
2019-06-08T05:14:05.876Z,17.94
2019-06-08T05:19:08.661Z,17.86
2019-06-08T05:24:11.749Z,17.76
2019-06-08T05:29:14.127Z,17.72
2019-06-08T05:34:16.871Z,17.67
2019-06-08T05:39:19.655Z,17.44
2019-06-08T05:44:22.482Z,17.47
2019-06-08T05:49:25.012Z,17.59
2019-06-08T05:54:27.180Z,17.70
2019-06-08T05:59:29.333Z,17.84
2019-06-08T06:04:31.589Z,17.93
2019-06-08T06:09:34.426Z,17.95
2019-06-08T06:14:37.298Z,18.02
2019-06-08T06:19:41.076Z,18.12
2019-06-08T06:24:45.454Z,18.21
2019-06-08T06:29:47.946Z,18.31
2019-06-08T06:34:50.242Z,18.60
2019-06-08T06:39:53.682Z,18.70
2019-06-08T06:44:56.016Z,18.63
2019-06-08T06:49:58.592Z,18.59
2019-06-08T06:55:01.958Z,18.59
2019-06-08T07:00:06.518Z,18.69
2019-06-08T07:05:09.756Z,18.99
2019-06-08T07:10:12.727Z,19.16
2019-06-08T07:15:26.523Z,19.36
2019-06-08T07:20:29.813Z,19.41
2019-06-08T07:25:32.215Z,19.31
2019-06-08T07:30:34.772Z,19.44
2019-06-08T07:35:38.463Z,19.56
2019-06-08T07:40:41.236Z,20.38
2019-06-08T07:45:43.853Z,20.21
2019-06-08T07:50:48.253Z,19.77
2019-06-08T07:55:53.522Z,19.35
2019-06-08T08:01:03.668Z,19.21
2019-06-08T08:06:00.879Z,19.20
2019-06-08T08:11:03.529Z,19.05
2019-06-08T08:16:06.367Z,19.00
2019-06-08T08:21:21.182Z,19.22
2019-06-08T08:26:13.586Z,19.40
2019-06-08T08:31:18.404Z,19.34
2019-06-08T08:36:21.096Z,19.11
2019-06-08T08:41:24.734Z,19.10
2019-06-08T08:46:28.578Z,19.04
2019-06-08T08:51:31.642Z,19.10
2019-06-08T08:56:34.774Z,19.08
2019-06-08T09:01:38.375Z,19.03
2019-06-08T09:06:41.138Z,18.91
2019-06-08T09:11:43.985Z,18.89
2019-06-08T09:16:49.205Z,19.01
2019-06-08T09:21:53.024Z,19.19
2019-06-08T09:27:00.068Z,19.24
2019-06-08T09:32:03.109Z,19.16
2019-06-08T09:37:08.112Z,19.12
2019-06-08T09:42:11.010Z,19.24
2019-06-08T09:47:13.650Z,19.46
2019-06-08T09:52:18.924Z,19.78
2019-06-08T09:57:22.425Z,19.45
2019-06-08T10:02:28.143Z,19.21
2019-06-08T10:07:31.365Z,19.24
2019-06-08T10:12:34.183Z,19.27
2019-06-08T10:17:37.765Z,19.12
2019-06-08T10:22:42.238Z,19.15
2019-06-08T10:27:44.933Z,19.00
2019-06-08T10:32:50.783Z,18.88
2019-06-08T10:37:55.642Z,19.01
2019-06-08T10:43:00.860Z,18.92
2019-06-08T10:48:03.219Z,18.84
2019-06-08T10:53:10.458Z,19.21
2019-06-08T10:58:12.197Z,19.56
2019-06-08T11:03:15.930Z,19.83
2019-06-08T11:08:19.048Z,20.24
2019-06-08T11:13:22.024Z,20.68
2019-06-08T11:18:24.982Z,21.25
2019-06-08T11:23:28.875Z,21.25
2019-06-08T11:28:31.471Z,21.54
2019-06-08T11:33:34.748Z,21.19
2019-06-08T11:38:38.260Z,20.73
2019-06-08T11:43:41.020Z,20.51
2019-06-08T11:48:43.378Z,20.72
2019-06-08T11:53:49.934Z,21.17
2019-06-08T11:58:53.006Z,22.23
2019-06-08T12:03:57.821Z,22.06
2019-06-08T12:09:00.542Z,21.61
2019-06-08T12:14:04.774Z,21.53
2019-06-08T12:19:11.962Z,21.51
2019-06-08T12:24:12.364Z,21.31
2019-06-08T12:29:16.662Z,21.35
2019-06-08T12:34:19.274Z,21.84
2019-06-08T12:39:21.573Z,22.54
2019-06-08T12:44:28.484Z,23.07
2019-06-08T12:49:30.390Z,23.30
2019-06-08T12:54:33.182Z,23.30
2019-06-08T12:59:35.471Z,23.35
2019-06-08T13:04:38.487Z,23.56
2019-06-08T13:09:41.717Z,23.49
2019-06-08T13:14:43.907Z,23.85
2019-06-08T13:19:48.215Z,23.74
2019-06-08T13:24:51.623Z,23.84
2019-06-08T13:29:53.957Z,23.52
2019-06-08T13:34:58.263Z,23.28
2019-06-08T13:40:02.083Z,23.30
2019-06-08T13:45:07.524Z,23.14
2019-06-08T13:50:13.051Z,23.48
2019-06-08T13:55:34.689Z,23.59
2019-06-08T14:00:33.203Z,23.64
2019-06-08T14:05:38.835Z,23.71
2019-06-08T14:10:41.489Z,23.77
2019-06-08T14:15:43.850Z,23.51
2019-06-08T14:20:48.385Z,23.47
2019-06-08T14:25:56.751Z,23.52
2019-06-08T14:30:55.049Z,23.90
2019-06-08T14:35:59.179Z,24.21
2019-06-08T14:41:02.314Z,23.93
2019-06-08T14:46:04.834Z,24.09
2019-06-08T14:51:08.751Z,23.97
2019-06-08T14:56:13.487Z,23.60
2019-06-08T15:01:19.462Z,23.39
2019-06-08T15:06:21.089Z,23.55
2019-06-08T15:11:23.472Z,23.61
2019-06-08T15:16:25.833Z,23.09
2019-06-08T15:21:32.654Z,22.76
2019-06-08T15:26:42.331Z,22.71
2019-06-08T15:31:39.048Z,23.02
2019-06-08T15:36:41.789Z,23.21
2019-06-08T15:41:44.339Z,22.72
2019-06-08T15:46:49.310Z,22.66
2019-06-08T15:51:52.112Z,22.63
2019-06-08T15:56:55.235Z,22.33
2019-06-08T16:01:57.487Z,22.29
2019-06-08T16:07:00.210Z,22.56
2019-06-08T16:12:03.006Z,22.55
2019-06-08T16:17:06.514Z,22.34
2019-06-08T16:22:08.675Z,22.50
2019-06-08T16:27:12.168Z,22.68
2019-06-08T16:32:14.476Z,22.33
2019-06-08T16:37:17.659Z,22.45
2019-06-08T16:42:19.851Z,22.29
2019-06-08T16:47:22.077Z,22.06
2019-06-08T16:52:25.309Z,22.07
2019-06-08T16:57:28.813Z,22.06
2019-06-08T17:02:32.731Z,22.01
2019-06-08T17:07:35.557Z,21.91
2019-06-08T17:12:39.113Z,21.76
2019-06-08T17:17:41.496Z,21.71
2019-06-08T17:22:44.545Z,21.56
2019-06-08T17:27:46.693Z,21.46
2019-06-08T17:32:49.741Z,21.47
2019-06-08T17:37:52.633Z,21.40
2019-06-08T17:42:55.510Z,21.33
2019-06-08T17:47:57.879Z,21.30
2019-06-08T17:53:00.080Z,21.22
2019-06-08T17:58:02.263Z,21.21
2019-06-08T18:03:05.063Z,21.18
2019-06-08T18:08:07.828Z,21.16
2019-06-08T18:13:10.961Z,21.12
2019-06-08T18:18:14.270Z,21.10
2019-06-08T18:23:17.336Z,20.95
2019-06-08T18:28:19.791Z,20.83
2019-06-08T18:33:22.203Z,20.74
2019-06-08T18:38:27.281Z,20.69
2019-06-08T18:43:29.433Z,20.63
2019-06-08T18:48:32.764Z,20.58
2019-06-08T18:53:49.223Z,20.53
2019-06-08T18:58:42.169Z,20.45
2019-06-08T19:03:47.923Z,20.36
2019-06-08T19:08:51.059Z,20.26
2019-06-08T19:13:54.376Z,20.17
2019-06-08T19:18:58.111Z,20.13
2019-06-08T19:24:01.095Z,20.06
2019-06-08T19:29:03.671Z,19.99
2019-06-08T19:34:07.651Z,19.90
2019-06-08T19:39:10.454Z,19.83
2019-06-08T19:44:13.848Z,19.77
2019-06-08T19:49:17.319Z,19.74
2019-06-08T19:54:19.879Z,19.64
2019-06-08T19:59:22.206Z,19.57
2019-06-08T20:04:27.553Z,19.51
2019-06-08T20:09:31.425Z,19.46
2019-06-08T20:14:34.352Z,19.44
2019-06-08T20:19:38.709Z,19.33
2019-06-08T20:24:42.466Z,19.26
2019-06-08T20:29:47.843Z,19.22
2019-06-08T20:34:51.129Z,19.17
2019-06-08T20:40:07.117Z,19.12
2019-06-08T20:45:00.236Z,19.07
2019-06-08T20:50:04.521Z,19.03
2019-06-08T20:55:07.981Z,18.98
2019-06-08T21:00:12.002Z,18.93
2019-06-08T21:05:15.328Z,18.85
2019-06-08T21:10:17.972Z,18.83
2019-06-08T21:15:21.619Z,18.80
2019-06-08T21:20:24.319Z,18.77
2019-06-08T21:25:28.101Z,18.73
2019-06-08T21:30:31.802Z,18.67
2019-06-08T21:35:34.291Z,18.65
2019-06-08T21:40:37.997Z,18.60
2019-06-08T21:45:41.089Z,18.48
2019-06-08T21:50:43.575Z,18.39
2019-06-08T21:55:46.505Z,18.36
2019-06-08T22:00:52.562Z,18.31
2019-06-08T22:05:58.465Z,18.22
2019-06-08T22:11:00.736Z,18.15
2019-06-08T22:16:04.293Z,18.08
2019-06-08T22:21:08.306Z,18.05
2019-06-08T22:26:11.044Z,18.01
2019-06-08T22:31:14.140Z,17.94
2019-06-08T22:36:17.071Z,17.91
2019-06-08T22:41:20.189Z,17.83
2019-06-08T22:46:23.100Z,17.81
2019-06-08T22:51:28.104Z,17.75
2019-06-08T22:56:31.588Z,17.67
2019-06-08T23:01:34.609Z,17.51
2019-06-08T23:06:38.621Z,17.44
2019-06-08T23:11:41.860Z,17.37
2019-06-08T23:16:47.189Z,17.32
2019-06-08T23:21:49.644Z,17.30
2019-06-08T23:26:51.806Z,17.28
2019-06-08T23:31:54.210Z,17.23
2019-06-08T23:37:00.038Z,17.18
2019-06-08T23:42:01.626Z,17.15
2019-06-08T23:47:04.586Z,17.07
2019-06-08T23:52:11.276Z,17.01
2019-06-08T23:57:11.460Z,16.97
